Apalachicola, Florida
Current Conditions -  °F | °C
As of 3:53 PM on Sunday 21 Dec 2014 (Local Time) from KAAF Reporting Station
Light Rain Light Rain  
Wind Chill: 16°   Ceiling: 200
Heat Index: 16°   Visibility: 1.2mi
Dew Point: 14°   Wind: 7mph
Humidity: 90%   Direction: 80°E
Pressure: 29.99"   Gusts: NA
Location:  29.73°N, 84.99°W
Report Text: KAAF 212053Z AUTO 08006KT 1 1/4SM -RA BR OVC002 16/14 A2999 RMK AO2 RAE01B18 SLP155 P0000 60000 T01610144 56022 TSNO
Loading
Personal Weather Stations






























Interactive Weather Map New forecast layout! Learn more

10-Day Weather Forecast

Advertisements
Track Severe Weather on mobile